sensor_id;sensor_type;location;lat;lon;timestamp;temperature;humidity
49238;DHT22;35069;47.906;1.892;2022-08-14T00:01:12;26.00;35.50
49238;DHT22;35069;47.906;1.892;2022-08-14T00:03:38;26.00;35.60
49238;DHT22;35069;47.906;1.892;2022-08-14T00:06:05;26.00;35.60
49238;DHT22;35069;47.906;1.892;2022-08-14T00:08:31;26.00;35.60
49238;DHT22;35069;47.906;1.892;2022-08-14T00:10:57;25.90;35.70
49238;DHT22;35069;47.906;1.892;2022-08-14T00:13:24;25.80;35.80
49238;DHT22;35069;47.906;1.892;2022-08-14T00:15:55;25.80;35.80
49238;DHT22;35069;47.906;1.892;2022-08-14T00:18:24;25.80;35.90
49238;DHT22;35069;47.906;1.892;2022-08-14T00:20:51;25.80;35.90
49238;DHT22;35069;47.906;1.892;2022-08-14T00:23:17;25.80;35.90
49238;DHT22;35069;47.906;1.892;2022-08-14T00:25:46;25.80;35.90
49238;DHT22;35069;47.906;1.892;2022-08-14T00:28:13;25.80;36.00
49238;DHT22;35069;47.906;1.892;2022-08-14T00:30:40;25.80;35.90
49238;DHT22;35069;47.906;1.892;2022-08-14T00:33:06;25.80;36.00
49238;DHT22;35069;47.906;1.892;2022-08-14T00:35:32;25.80;36.00
49238;DHT22;35069;47.906;1.892;2022-08-14T00:37:58;25.80;36.10
49238;DHT22;35069;47.906;1.892;2022-08-14T00:40:24;25.80;36.20
49238;DHT22;35069;47.906;1.892;2022-08-14T00:42:50;25.70;36.10
49238;DHT22;35069;47.906;1.892;2022-08-14T00:45:16;25.70;36.30
49238;DHT22;35069;47.906;1.892;2022-08-14T00:47:44;25.70;36.40
49238;DHT22;35069;47.906;1.892;2022-08-14T00:50:16;25.60;36.40
49238;DHT22;35069;47.906;1.892;2022-08-14T00:52:42;25.60;36.50
49238;DHT22;35069;47.906;1.892;2022-08-14T00:55:10;25.50;37.00
49238;DHT22;35069;47.906;1.892;2022-08-14T00:57:37;25.40;36.70
49238;DHT22;35069;47.906;1.892;2022-08-14T01:00:10;25.40;36.70
49238;DHT22;35069;47.906;1.892;2022-08-14T01:02:38;25.40;36.90
49238;DHT22;35069;47.906;1.892;2022-08-14T01:05:05;25.40;36.90
49238;DHT22;35069;47.906;1.892;2022-08-14T01:07:32;25.30;36.80
49238;DHT22;35069;47.906;1.892;2022-08-14T01:10:00;25.40;36.90
49238;DHT22;35069;47.906;1.892;2022-08-14T01:12:27;25.40;36.90
49238;DHT22;35069;47.906;1.892;2022-08-14T01:14:54;25.30;37.00
49238;DHT22;35069;47.906;1.892;2022-08-14T01:17:22;25.30;37.80
49238;DHT22;35069;47.906;1.892;2022-08-14T01:19:48;25.30;37.20
49238;DHT22;35069;47.906;1.892;2022-08-14T01:22:52;25.30;37.10
49238;DHT22;35069;47.906;1.892;2022-08-14T01:25:18;25.30;37.10
49238;DHT22;35069;47.906;1.892;2022-08-14T01:27:44;25.30;37.20
49238;DHT22;35069;47.906;1.892;2022-08-14T01:30:11;25.30;37.20
49238;DHT22;35069;47.906;1.892;2022-08-14T01:32:37;25.30;37.30
49238;DHT22;35069;47.906;1.892;2022-08-14T01:35:03;25.30;37.40
49238;DHT22;35069;47.906;1.892;2022-08-14T01:37:31;25.30;37.40
49238;DHT22;35069;47.906;1.892;2022-08-14T01:39:58;25.20;37.30
49238;DHT22;35069;47.906;1.892;2022-08-14T01:42:24;25.20;37.30
49238;DHT22;35069;47.906;1.892;2022-08-14T01:44:52;25.30;37.40
49238;DHT22;35069;47.906;1.892;2022-08-14T01:47:21;25.30;37.40
49238;DHT22;35069;47.906;1.892;2022-08-14T01:49:47;25.30;37.40
49238;DHT22;35069;47.906;1.892;2022-08-14T01:52:14;25.30;37.40
49238;DHT22;35069;47.906;1.892;2022-08-14T01:54:39;25.20;37.40
49238;DHT22;35069;47.906;1.892;2022-08-14T01:57:05;25.20;37.40
49238;DHT22;35069;47.906;1.892;2022-08-14T01:59:36;25.10;37.40
49238;DHT22;35069;47.906;1.892;2022-08-14T02:02:05;25.20;37.50
49238;DHT22;35069;47.906;1.892;2022-08-14T02:04:37;25.20;37.50
49238;DHT22;35069;47.906;1.892;2022-08-14T02:07:04;25.10;37.50
49238;DHT22;35069;47.906;1.892;2022-08-14T02:09:30;25.20;37.60
49238;DHT22;35069;47.906;1.892;2022-08-14T02:12:00;25.20;37.60
49238;DHT22;35069;47.906;1.892;2022-08-14T02:14:26;25.30;37.60
49238;DHT22;35069;47.906;1.892;2022-08-14T02:16:53;25.30;37.50
49238;DHT22;35069;47.906;1.892;2022-08-14T02:19:20;25.30;37.50
49238;DHT22;35069;47.906;1.892;2022-08-14T02:21:49;25.40;37.50
49238;DHT22;35069;47.906;1.892;2022-08-14T02:24:18;25.50;37.40
49238;DHT22;35069;47.906;1.892;2022-08-14T02:26:47;25.50;37.40
49238;DHT22;35069;47.906;1.892;2022-08-14T02:29:19;25.40;38.70
49238;DHT22;35069;47.906;1.892;2022-08-14T02:31:49;25.30;37.70
49238;DHT22;35069;47.906;1.892;2022-08-14T02:34:23;25.20;38.10
49238;DHT22;35069;47.906;1.892;2022-08-14T02:36:57;25.10;38.40
49238;DHT22;35069;47.906;1.892;2022-08-14T02:39:23;25.00;38.60
49238;DHT22;35069;47.906;1.892;2022-08-14T02:41:49;25.00;38.60
49238;DHT22;35069;47.906;1.892;2022-08-14T02:44:17;25.10;38.80
49238;DHT22;35069;47.906;1.892;2022-08-14T02:46:48;25.10;38.90
49238;DHT22;35069;47.906;1.892;2022-08-14T02:49:15;25.10;39.00
49238;DHT22;35069;47.906;1.892;2022-08-14T02:51:45;25.10;39.20
49238;DHT22;35069;47.906;1.892;2022-08-14T02:54:11;25.10;39.20
49238;DHT22;35069;47.906;1.892;2022-08-14T02:56:37;25.10;39.30
49238;DHT22;35069;47.906;1.892;2022-08-14T02:59:04;25.00;39.50
49238;DHT22;35069;47.906;1.892;2022-08-14T03:01:32;24.90;39.70
49238;DHT22;35069;47.906;1.892;2022-08-14T03:03:58;24.90;39.90
49238;DHT22;35069;47.906;1.892;2022-08-14T03:06:24;24.80;40.60
49238;DHT22;35069;47.906;1.892;2022-08-14T03:08:52;24.80;40.20
49238;DHT22;35069;47.906;1.892;2022-08-14T03:11:18;24.80;40.20
49238;DHT22;35069;47.906;1.892;2022-08-14T03:13:47;24.80;40.10
49238;DHT22;35069;47.906;1.892;2022-08-14T03:16:15;24.90;40.20
49238;DHT22;35069;47.906;1.892;2022-08-14T03:18:43;24.80;40.30
49238;DHT22;35069;47.906;1.892;2022-08-14T03:21:16;24.80;40.50
49238;DHT22;35069;47.906;1.892;2022-08-14T03:23:45;24.70;40.90
49238;DHT22;35069;47.906;1.892;2022-08-14T03:26:17;24.60;41.90
49238;DHT22;35069;47.906;1.892;2022-08-14T03:28:47;24.60;41.60
49238;DHT22;35069;47.906;1.892;2022-08-14T03:31:12;24.60;41.90
49238;DHT22;35069;47.906;1.892;2022-08-14T03:33:40;24.60;42.30
49238;DHT22;35069;47.906;1.892;2022-08-14T03:36:08;24.60;42.80
49238;DHT22;35069;47.906;1.892;2022-08-14T03:38:41;24.60;43.50
49238;DHT22;35069;47.906;1.892;2022-08-14T03:41:09;24.60;43.90
49238;DHT22;35069;47.906;1.892;2022-08-14T03:43:45;24.60;44.30
49238;DHT22;35069;47.906;1.892;2022-08-14T03:46:11;24.60;45.40
49238;DHT22;35069;47.906;1.892;2022-08-14T03:48:38;24.60;46.00
49238;DHT22;35069;47.906;1.892;2022-08-14T03:51:05;24.70;46.80
49238;DHT22;35069;47.906;1.892;2022-08-14T03:53:33;24.70;47.50
49238;DHT22;35069;47.906;1.892;2022-08-14T03:56:03;24.60;48.10
49238;DHT22;35069;47.906;1.892;2022-08-14T03:58:29;24.60;48.40
49238;DHT22;35069;47.906;1.892;2022-08-14T04:00:59;24.70;49.50
49238;DHT22;35069;47.906;1.892;2022-08-14T04:03:26;24.80;49.80
49238;DHT22;35069;47.906;1.892;2022-08-14T04:05:52;24.70;50.70
49238;DHT22;35069;47.906;1.892;2022-08-14T04:08:19;24.80;51.20
49238;DHT22;35069;47.906;1.892;2022-08-14T04:10:45;24.80;52.20
49238;DHT22;35069;47.906;1.892;2022-08-14T04:13:12;24.70;53.80
49238;DHT22;35069;47.906;1.892;2022-08-14T04:15:45;24.70;53.80
49238;DHT22;35069;47.906;1.892;2022-08-14T04:18:11;24.70;55.60
49238;DHT22;35069;47.906;1.892;2022-08-14T04:20:39;24.60;56.40
49238;DHT22;35069;47.906;1.892;2022-08-14T04:23:06;24.60;57.80
49238;DHT22;35069;47.906;1.892;2022-08-14T04:25:32;24.60;57.90
49238;DHT22;35069;47.906;1.892;2022-08-14T04:28:09;24.60;58.80
49238;DHT22;35069;47.906;1.892;2022-08-14T04:30:36;24.70;61.10
49238;DHT22;35069;47.906;1.892;2022-08-14T04:33:05;24.60;60.00
49238;DHT22;35069;47.906;1.892;2022-08-14T04:35:32;24.70;60.60
49238;DHT22;35069;47.906;1.892;2022-08-14T04:37:58;24.70;60.40
49238;DHT22;35069;47.906;1.892;2022-08-14T04:40:42;24.80;60.60
49238;DHT22;35069;47.906;1.892;2022-08-14T04:43:30;24.80;60.90
49238;DHT22;35069;47.906;1.892;2022-08-14T04:46:09;24.80;61.80
49238;DHT22;35069;47.906;1.892;2022-08-14T04:48:35;24.80;61.80
49238;DHT22;35069;47.906;1.892;2022-08-14T04:51:04;24.80;63.00
49238;DHT22;35069;47.906;1.892;2022-08-14T04:53:31;24.80;62.70
49238;DHT22;35069;47.906;1.892;2022-08-14T04:55:57;24.80;63.10
49238;DHT22;35069;47.906;1.892;2022-08-14T04:58:26;24.70;63.50
49238;DHT22;35069;47.906;1.892;2022-08-14T05:00:53;24.70;63.90
49238;DHT22;35069;47.906;1.892;2022-08-14T05:03:23;24.70;64.30
49238;DHT22;35069;47.906;1.892;2022-08-14T05:05:50;24.60;64.80
49238;DHT22;35069;47.906;1.892;2022-08-14T05:08:16;24.60;64.60
49238;DHT22;35069;47.906;1.892;2022-08-14T05:10:45;24.60;65.50
49238;DHT22;35069;47.906;1.892;2022-08-14T05:13:11;24.50;65.90
49238;DHT22;35069;47.906;1.892;2022-08-14T05:15:40;24.60;65.90
49238;DHT22;35069;47.906;1.892;2022-08-14T05:18:16;24.60;66.00
49238;DHT22;35069;47.906;1.892;2022-08-14T05:20:48;24.60;67.00
49238;DHT22;35069;47.906;1.892;2022-08-14T05:23:21;24.60;66.20
49238;DHT22;35069;47.906;1.892;2022-08-14T05:25:49;24.50;66.90
49238;DHT22;35069;47.906;1.892;2022-08-14T05:28:23;24.50;66.60
49238;DHT22;35069;47.906;1.892;2022-08-14T05:30:57;24.40;67.20
49238;DHT22;35069;47.906;1.892;2022-08-14T05:33:25;24.40;66.70
49238;DHT22;35069;47.906;1.892;2022-08-14T05:35:53;24.40;67.60
49238;DHT22;35069;47.906;1.892;2022-08-14T05:38:26;24.40;68.00
49238;DHT22;35069;47.906;1.892;2022-08-14T05:40:52;24.40;67.50
49238;DHT22;35069;47.906;1.892;2022-08-14T05:43:18;24.50;67.40
49238;DHT22;35069;47.906;1.892;2022-08-14T05:45:43;24.50;67.50
49238;DHT22;35069;47.906;1.892;2022-08-14T05:48:13;24.50;67.20
49238;DHT22;35069;47.906;1.892;2022-08-14T05:50:40;24.50;67.60
49238;DHT22;35069;47.906;1.892;2022-08-14T05:53:06;24.50;67.90
49238;DHT22;35069;47.906;1.892;2022-08-14T05:55:32;24.60;67.90
49238;DHT22;35069;47.906;1.892;2022-08-14T05:58:01;24.50;68.00
49238;DHT22;35069;47.906;1.892;2022-08-14T06:00:30;24.60;67.70
49238;DHT22;35069;47.906;1.892;2022-08-14T06:02:59;24.60;67.80
49238;DHT22;35069;47.906;1.892;2022-08-14T06:05:26;24.60;67.90
49238;DHT22;35069;47.906;1.892;2022-08-14T06:07:52;24.60;67.80
49238;DHT22;35069;47.906;1.892;2022-08-14T06:10:17;24.60;67.70
49238;DHT22;35069;47.906;1.892;2022-08-14T06:12:43;24.60;67.70
49238;DHT22;35069;47.906;1.892;2022-08-14T06:15:10;24.60;67.60
49238;DHT22;35069;47.906;1.892;2022-08-14T06:17:46;24.70;67.40
49238;DHT22;35069;47.906;1.892;2022-08-14T06:20:13;24.80;67.30
49238;DHT22;35069;47.906;1.892;2022-08-14T06:22:40;24.80;67.60
49238;DHT22;35069;47.906;1.892;2022-08-14T06:25:07;24.80;67.00
49238;DHT22;35069;47.906;1.892;2022-08-14T06:27:41;24.80;66.90
49238;DHT22;35069;47.906;1.892;2022-08-14T06:30:09;24.90;66.90
49238;DHT22;35069;47.906;1.892;2022-08-14T06:32:35;24.90;66.40
49238;DHT22;35069;47.906;1.892;2022-08-14T06:35:02;24.90;66.70
49238;DHT22;35069;47.906;1.892;2022-08-14T06:37:43;24.90;66.80
49238;DHT22;35069;47.906;1.892;2022-08-14T06:40:12;24.80;67.10
49238;DHT22;35069;47.906;1.892;2022-08-14T06:42:39;24.80;66.90
49238;DHT22;35069;47.906;1.892;2022-08-14T06:45:05;24.80;67.00
49238;DHT22;35069;47.906;1.892;2022-08-14T06:47:39;24.80;67.10
49238;DHT22;35069;47.906;1.892;2022-08-14T06:50:08;24.70;67.60
49238;DHT22;35069;47.906;1.892;2022-08-14T06:52:35;24.60;67.30
49238;DHT22;35069;47.906;1.892;2022-08-14T06:55:03;24.60;68.00
49238;DHT22;35069;47.906;1.892;2022-08-14T06:57:42;24.60;67.40
49238;DHT22;35069;47.906;1.892;2022-08-14T07:00:21;24.60;67.90
49238;DHT22;35069;47.906;1.892;2022-08-14T07:02:47;24.50;68.70
49238;DHT22;35069;47.906;1.892;2022-08-14T07:05:32;24.40;68.00
49238;DHT22;35069;47.906;1.892;2022-08-14T07:08:20;24.50;68.10
49238;DHT22;35069;47.906;1.892;2022-08-14T07:10:49;24.60;68.00
49238;DHT22;35069;47.906;1.892;2022-08-14T07:13:16;24.70;67.70
49238;DHT22;35069;47.906;1.892;2022-08-14T07:15:44;24.80;67.50
49238;DHT22;35069;47.906;1.892;2022-08-14T07:18:12;25.00;67.10
49238;DHT22;35069;47.906;1.892;2022-08-14T07:20:39;25.10;66.80
49238;DHT22;35069;47.906;1.892;2022-08-14T07:23:07;25.20;66.80
49238;DHT22;35069;47.906;1.892;2022-08-14T07:25:33;25.30;66.60
49238;DHT22;35069;47.906;1.892;2022-08-14T07:28:00;25.50;66.40
49238;DHT22;35069;47.906;1.892;2022-08-14T07:30:26;25.60;65.90
49238;DHT22;35069;47.906;1.892;2022-08-14T07:32:51;25.80;65.90
49238;DHT22;35069;47.906;1.892;2022-08-14T07:35:17;26.10;65.40
49238;DHT22;35069;47.906;1.892;2022-08-14T07:37:46;26.30;64.90
49238;DHT22;35069;47.906;1.892;2022-08-14T07:40:12;26.50;64.80
49238;DHT22;35069;47.906;1.892;2022-08-14T07:42:37;26.60;64.40
49238;DHT22;35069;47.906;1.892;2022-08-14T07:45:03;26.80;64.00
49238;DHT22;35069;47.906;1.892;2022-08-14T07:47:29;26.80;63.60
49238;DHT22;35069;47.906;1.892;2022-08-14T07:50:02;26.80;63.50
49238;DHT22;35069;47.906;1.892;2022-08-14T07:52:29;26.80;63.40
49238;DHT22;35069;47.906;1.892;2022-08-14T07:54:55;26.70;63.20
49238;DHT22;35069;47.906;1.892;2022-08-14T07:57:21;26.60;63.30
49238;DHT22;35069;47.906;1.892;2022-08-14T07:59:47;26.50;63.60
49238;DHT22;35069;47.906;1.892;2022-08-14T08:02:14;26.30;63.80
49238;DHT22;35069;47.906;1.892;2022-08-14T08:04:45;26.20;64.10
49238;DHT22;35069;47.906;1.892;2022-08-14T08:07:12;26.10;64.60
49238;DHT22;35069;47.906;1.892;2022-08-14T08:09:42;25.90;64.90
49238;DHT22;35069;47.906;1.892;2022-08-14T08:12:08;25.80;65.20
49238;DHT22;35069;47.906;1.892;2022-08-14T08:14:36;25.60;65.20
49238;DHT22;35069;47.906;1.892;2022-08-14T08:17:02;25.60;65.50
49238;DHT22;35069;47.906;1.892;2022-08-14T08:19:29;25.50;66.80
49238;DHT22;35069;47.906;1.892;2022-08-14T08:21:57;25.40;66.40
49238;DHT22;35069;47.906;1.892;2022-08-14T08:24:23;25.30;66.60
49238;DHT22;35069;47.906;1.892;2022-08-14T08:26:49;25.30;67.00
49238;DHT22;35069;47.906;1.892;2022-08-14T08:29:19;25.30;67.20
49238;DHT22;35069;47.906;1.892;2022-08-14T08:31:49;25.30;67.70
49238;DHT22;35069;47.906;1.892;2022-08-14T08:34:19;25.30;68.00
49238;DHT22;35069;47.906;1.892;2022-08-14T08:36:46;25.30;67.70
49238;DHT22;35069;47.906;1.892;2022-08-14T08:39:11;25.50;67.70
49238;DHT22;35069;47.906;1.892;2022-08-14T08:41:42;25.50;67.70
49238;DHT22;35069;47.906;1.892;2022-08-14T08:44:08;25.60;67.50
49238;DHT22;35069;47.906;1.892;2022-08-14T08:46:34;25.70;67.20
49238;DHT22;35069;47.906;1.892;2022-08-14T08:49:00;25.70;67.00
49238;DHT22;35069;47.906;1.892;2022-08-14T08:59:26;25.90;66.40
49238;DHT22;35069;47.906;1.892;2022-08-14T09:01:53;25.90;66.00
49238;DHT22;35069;47.906;1.892;2022-08-14T09:04:26;26.00;66.00
49238;DHT22;35069;47.906;1.892;2022-08-14T09:06:53;26.10;65.90
49238;DHT22;35069;47.906;1.892;2022-08-14T09:09:24;26.10;65.40
49238;DHT22;35069;47.906;1.892;2022-08-14T09:11:52;26.30;65.20
49238;DHT22;35069;47.906;1.892;2022-08-14T09:14:29;26.30;64.90
49238;DHT22;35069;47.906;1.892;2022-08-14T09:16:57;26.30;65.00
49238;DHT22;35069;47.906;1.892;2022-08-14T09:19:26;26.30;64.90
49238;DHT22;35069;47.906;1.892;2022-08-14T09:21:52;26.40;64.80
49238;DHT22;35069;47.906;1.892;2022-08-14T09:24:19;26.40;64.80
49238;DHT22;35069;47.906;1.892;2022-08-14T09:26:46;26.40;65.00
49238;DHT22;35069;47.906;1.892;2022-08-14T09:29:13;26.40;64.80
49238;DHT22;35069;47.906;1.892;2022-08-14T09:31:45;26.40;64.90
49238;DHT22;35069;47.906;1.892;2022-08-14T09:34:38;26.40;65.20
49238;DHT22;35069;47.906;1.892;2022-08-14T09:37:29;26.30;65.30
49238;DHT22;35069;47.906;1.892;2022-08-14T09:40:11;26.40;65.20
49238;DHT22;35069;47.906;1.892;2022-08-14T09:43:03;26.40;65.00
49238;DHT22;35069;47.906;1.892;2022-08-14T09:45:35;26.40;65.30
49238;DHT22;35069;47.906;1.892;2022-08-14T09:48:16;26.40;64.40
49238;DHT22;35069;47.906;1.892;2022-08-14T09:50:50;26.20;64.10
49238;DHT22;35069;47.906;1.892;2022-08-14T09:56:03;25.90;64.70
49238;DHT22;35069;47.906;1.892;2022-08-14T09:58:41;25.80;65.00
49238;DHT22;35069;47.906;1.892;2022-08-14T10:01:15;25.70;65.50
49238;DHT22;35069;47.906;1.892;2022-08-14T10:03:53;25.70;65.70
49238;DHT22;35069;47.906;1.892;2022-08-14T10:06:25;25.80;65.70
49238;DHT22;35069;47.906;1.892;2022-08-14T10:11:31;26.00;65.90
49238;DHT22;35069;47.906;1.892;2022-08-14T10:16:44;26.20;64.90
49238;DHT22;35069;47.906;1.892;2022-08-14T10:19:13;26.30;64.70
49238;DHT22;35069;47.906;1.892;2022-08-14T10:21:42;26.30;64.40
49238;DHT22;35069;47.906;1.892;2022-08-14T10:24:09;26.30;64.40
49238;DHT22;35069;47.906;1.892;2022-08-14T10:26:35;26.30;64.50
49238;DHT22;35069;47.906;1.892;2022-08-14T10:29:09;26.20;64.40
49238;DHT22;35069;47.906;1.892;2022-08-14T10:31:41;26.10;64.60
49238;DHT22;35069;47.906;1.892;2022-08-14T10:34:10;26.10;64.90
49238;DHT22;35069;47.906;1.892;2022-08-14T10:36:38;26.10;65.00
49238;DHT22;35069;47.906;1.892;2022-08-14T10:39:19;26.10;65.10
49238;DHT22;35069;47.906;1.892;2022-08-14T10:41:47;26.00;65.60
49238;DHT22;35069;47.906;1.892;2022-08-14T10:44:16;26.10;65.30
49238;DHT22;35069;47.906;1.892;2022-08-14T10:46:51;26.20;65.40
49238;DHT22;35069;47.906;1.892;2022-08-14T10:49:21;26.20;65.60
49238;DHT22;35069;47.906;1.892;2022-08-14T10:52:04;26.20;65.50
49238;DHT22;35069;47.906;1.892;2022-08-14T10:54:41;26.20;65.40
49238;DHT22;35069;47.906;1.892;2022-08-14T10:57:21;26.10;65.30
49238;DHT22;35069;47.906;1.892;2022-08-14T10:59:59;25.90;65.60
49238;DHT22;35069;47.906;1.892;2022-08-14T11:02:35;25.80;66.20
49238;DHT22;35069;47.906;1.892;2022-08-14T11:05:14;25.90;66.00
49238;DHT22;35069;47.906;1.892;2022-08-14T11:08:02;26.10;65.90
49238;DHT22;35069;47.906;1.892;2022-08-14T11:10:45;26.40;65.20
49238;DHT22;35069;47.906;1.892;2022-08-14T11:13:21;26.60;64.80
49238;DHT22;35069;47.906;1.892;2022-08-14T11:15:48;26.80;64.50
49238;DHT22;35069;47.906;1.892;2022-08-14T11:18:15;27.30;64.00
49238;DHT22;35069;47.906;1.892;2022-08-14T11:20:51;27.90;62.80
49238;DHT22;35069;47.906;1.892;2022-08-14T11:23:27;28.30;61.80
49238;DHT22;35069;47.906;1.892;2022-08-14T11:25:57;28.50;61.00
49238;DHT22;35069;47.906;1.892;2022-08-14T11:28:26;28.70;60.60
49238;DHT22;35069;47.906;1.892;2022-08-14T11:30:54;28.80;60.20
49238;DHT22;35069;47.906;1.892;2022-08-14T11:33:26;29.00;59.90
49238;DHT22;35069;47.906;1.892;2022-08-14T11:35:56;29.30;59.30
49238;DHT22;35069;47.906;1.892;2022-08-14T11:38:25;29.60;58.80
49238;DHT22;35069;47.906;1.892;2022-08-14T11:40:55;29.80;57.50
49238;DHT22;35069;47.906;1.892;2022-08-14T11:43:21;29.70;57.20
49238;DHT22;35069;47.906;1.892;2022-08-14T11:45:48;29.40;57.10
49238;DHT22;35069;47.906;1.892;2022-08-14T11:48:23;29.50;57.20
49238;DHT22;35069;47.906;1.892;2022-08-14T11:50:51;29.40;57.30
49238;DHT22;35069;47.906;1.892;2022-08-14T11:53:34;29.50;57.30
49238;DHT22;35069;47.906;1.892;2022-08-14T11:56:24;29.60;56.90
49238;DHT22;35069;47.906;1.892;2022-08-14T11:58:59;29.20;56.70
49238;DHT22;35069;47.906;1.892;2022-08-14T12:01:29;29.20;57.20
49238;DHT22;35069;47.906;1.892;2022-08-14T12:09:06;29.30;56.60
49238;DHT22;35069;47.906;1.892;2022-08-14T12:16:43;28.90;57.00
49238;DHT22;35069;47.906;1.892;2022-08-14T12:19:09;28.70;57.40
49238;DHT22;35069;47.906;1.892;2022-08-14T12:21:35;28.50;57.60
49238;DHT22;35069;47.906;1.892;2022-08-14T12:24:07;28.30;57.80
49238;DHT22;35069;47.906;1.892;2022-08-14T12:26:34;28.30;58.20
49238;DHT22;35069;47.906;1.892;2022-08-14T12:29:14;28.20;58.20
49238;DHT22;35069;47.906;1.892;2022-08-14T12:31:42;28.10;58.20
49238;DHT22;35069;47.906;1.892;2022-08-14T12:34:13;28.20;58.20
49238;DHT22;35069;47.906;1.892;2022-08-14T12:36:44;28.40;58.00
49238;DHT22;35069;47.906;1.892;2022-08-14T12:39:18;28.80;57.70
49238;DHT22;35069;47.906;1.892;2022-08-14T12:41:52;29.20;57.20
49238;DHT22;35069;47.906;1.892;2022-08-14T12:44:39;29.20;56.50
49238;DHT22;35069;47.906;1.892;2022-08-14T12:47:10;29.50;56.20
49238;DHT22;35069;47.906;1.892;2022-08-14T12:49:49;29.80;55.70
49238;DHT22;35069;47.906;1.892;2022-08-14T12:52:40;29.90;55.20
49238;DHT22;35069;47.906;1.892;2022-08-14T12:55:33;29.60;55.10
49238;DHT22;35069;47.906;1.892;2022-08-14T12:58:05;29.30;55.60
49238;DHT22;35069;47.906;1.892;2022-08-14T13:13:29;28.40;57.40
49238;DHT22;35069;47.906;1.892;2022-08-14T13:16:00;28.40;57.80
49238;DHT22;35069;47.906;1.892;2022-08-14T13:18:31;28.60;57.70
49238;DHT22;35069;47.906;1.892;2022-08-14T13:21:00;28.90;57.40
49238;DHT22;35069;47.906;1.892;2022-08-14T13:26:02;29.30;56.20
49238;DHT22;35069;47.906;1.892;2022-08-14T13:28:28;29.30;55.80
49238;DHT22;35069;47.906;1.892;2022-08-14T13:30:57;29.10;56.30
49238;DHT22;35069;47.906;1.892;2022-08-14T13:33:25;29.10;55.80
49238;DHT22;35069;47.906;1.892;2022-08-14T13:35:52;29.00;55.80
49238;DHT22;35069;47.906;1.892;2022-08-14T13:38:19;28.90;56.00
49238;DHT22;35069;47.906;1.892;2022-08-14T13:40:48;28.80;56.00
49238;DHT22;35069;47.906;1.892;2022-08-14T13:43:23;28.70;56.40
49238;DHT22;35069;47.906;1.892;2022-08-14T13:48:24;28.30;56.90
49238;DHT22;35069;47.906;1.892;2022-08-14T13:50:54;28.30;57.00
49238;DHT22;35069;47.906;1.892;2022-08-14T13:53:22;28.50;57.10
49238;DHT22;35069;47.906;1.892;2022-08-14T13:55:50;28.60;57.00
49238;DHT22;35069;47.906;1.892;2022-08-14T13:58:21;28.60;57.00
49238;DHT22;35069;47.906;1.892;2022-08-14T14:03:21;28.40;57.10
49238;DHT22;35069;47.906;1.892;2022-08-14T14:05:53;28.40;57.40
49238;DHT22;35069;47.906;1.892;2022-08-14T14:29:33;28.00;57.80
49238;DHT22;35069;47.906;1.892;2022-08-14T14:32:04;28.10;57.70
49238;DHT22;35069;47.906;1.892;2022-08-14T14:34:30;28.20;57.50
49238;DHT22;35069;47.906;1.892;2022-08-14T15:00:15;28.00;57.20
49238;DHT22;35069;47.906;1.892;2022-08-14T15:02:48;27.90;57.30
49238;DHT22;35069;47.906;1.892;2022-08-14T15:05:16;27.90;57.30
49238;DHT22;35069;47.906;1.892;2022-08-14T15:07:47;27.90;57.10
49238;DHT22;35069;47.906;1.892;2022-08-14T15:10:17;27.80;56.90
49238;DHT22;35069;47.906;1.892;2022-08-14T15:12:49;27.90;57.00
49238;DHT22;35069;47.906;1.892;2022-08-14T15:15:17;27.90;56.90
49238;DHT22;35069;47.906;1.892;2022-08-14T15:20:21;27.90;57.00
49238;DHT22;35069;47.906;1.892;2022-08-14T15:22:47;27.90;57.00
49238;DHT22;35069;47.906;1.892;2022-08-14T15:30:27;28.00;56.80
49238;DHT22;35069;47.906;1.892;2022-08-14T15:32:54;28.10;56.80
49238;DHT22;35069;47.906;1.892;2022-08-14T15:43:09;28.30;56.70
49238;DHT22;35069;47.906;1.892;2022-08-14T15:45:41;28.40;56.40
49238;DHT22;35069;47.906;1.892;2022-08-14T16:03:39;28.00;55.00
49238;DHT22;35069;47.906;1.892;2022-08-14T16:26:48;27.50;55.70
49238;DHT22;35069;47.906;1.892;2022-08-14T16:29:14;27.40;55.80
49238;DHT22;35069;47.906;1.892;2022-08-14T16:31:41;27.40;56.00
49238;DHT22;35069;47.906;1.892;2022-08-14T16:34:08;27.40;56.70
49238;DHT22;35069;47.906;1.892;2022-08-14T16:36:36;27.40;56.20
49238;DHT22;35069;47.906;1.892;2022-08-14T16:39:04;27.30;56.20
49238;DHT22;35069;47.906;1.892;2022-08-14T16:41:30;27.40;56.40
49238;DHT22;35069;47.906;1.892;2022-08-14T16:44:03;27.40;56.70
49238;DHT22;35069;47.906;1.892;2022-08-14T16:46:35;27.40;56.90
49238;DHT22;35069;47.906;1.892;2022-08-14T16:49:07;27.30;56.90
49238;DHT22;35069;47.906;1.892;2022-08-14T16:51:36;27.30;57.30
49238;DHT22;35069;47.906;1.892;2022-08-14T16:54:06;27.30;57.50
49238;DHT22;35069;47.906;1.892;2022-08-14T16:56:33;27.20;57.70
49238;DHT22;35069;47.906;1.892;2022-08-14T16:59:12;27.10;57.90
49238;DHT22;35069;47.906;1.892;2022-08-14T17:01:41;27.10;58.40
49238;DHT22;35069;47.906;1.892;2022-08-14T17:04:11;27.10;58.70
49238;DHT22;35069;47.906;1.892;2022-08-14T17:06:40;27.00;59.10
49238;DHT22;35069;47.906;1.892;2022-08-14T17:15:03;27.00;60.40
49238;DHT22;35069;47.906;1.892;2022-08-14T17:25:07;27.00;60.40
49238;DHT22;35069;47.906;1.892;2022-08-14T17:27:34;27.00;60.40
49238;DHT22;35069;47.906;1.892;2022-08-14T17:30:00;26.90;60.50
49238;DHT22;35069;47.906;1.892;2022-08-14T17:32:30;26.90;60.60
49238;DHT22;35069;47.906;1.892;2022-08-14T17:34:58;26.70;60.80
49238;DHT22;35069;47.906;1.892;2022-08-14T17:37:31;26.60;60.80
49238;DHT22;35069;47.906;1.892;2022-08-14T17:40:17;26.60;61.30
49238;DHT22;35069;47.906;1.892;2022-08-14T17:42:47;26.50;61.70
49238;DHT22;35069;47.906;1.892;2022-08-14T17:45:15;26.50;61.40
49238;DHT22;35069;47.906;1.892;2022-08-14T17:47:41;26.40;61.50
49238;DHT22;35069;47.906;1.892;2022-08-14T17:50:08;26.30;61.70
49238;DHT22;35069;47.906;1.892;2022-08-14T17:52:36;26.30;61.80
49238;DHT22;35069;47.906;1.892;2022-08-14T17:55:08;26.30;61.90
49238;DHT22;35069;47.906;1.892;2022-08-14T17:57:36;26.30;61.80
49238;DHT22;35069;47.906;1.892;2022-08-14T18:00:05;26.10;62.30
49238;DHT22;35069;47.906;1.892;2022-08-14T18:02:32;26.10;61.80
49238;DHT22;35069;47.906;1.892;2022-08-14T18:05:00;26.00;61.90
49238;DHT22;35069;47.906;1.892;2022-08-14T18:07:27;26.00;62.10
49238;DHT22;35069;47.906;1.892;2022-08-14T18:09:58;26.00;62.20
49238;DHT22;35069;47.906;1.892;2022-08-14T18:12:27;25.90;62.10
49238;DHT22;35069;47.906;1.892;2022-08-14T18:14:58;25.90;62.20
49238;DHT22;35069;47.906;1.892;2022-08-14T18:17:26;25.90;62.30
49238;DHT22;35069;47.906;1.892;2022-08-14T18:20:07;25.90;62.20
49238;DHT22;35069;47.906;1.892;2022-08-14T18:22:34;25.80;62.10